createdAt,value
2018-01-26T00:00:14.390Z,100774.97
2018-01-26T00:02:44.486Z,100774.45
2018-01-26T00:05:14.135Z,100769.74
2018-01-26T00:07:42.496Z,100773.98
2018-01-26T00:10:12.441Z,100774.77
2018-01-26T00:12:41.582Z,100777.66
2018-01-26T00:15:11.484Z,100773.64
2018-01-26T00:17:40.046Z,100778.23
2018-01-26T00:20:11.596Z,100778.73
2018-01-26T00:22:40.102Z,100762.67
2018-01-26T00:25:14.386Z,100772.95
2018-01-26T00:27:42.666Z,100772.42
2018-01-26T00:30:12.262Z,100780.84
2018-01-26T00:32:40.824Z,100770.46
2018-01-26T00:35:12.844Z,100771.70
2018-01-26T00:37:41.124Z,100776.74
2018-01-26T00:40:12.340Z,100776.34
2018-01-26T00:42:40.611Z,100773.70
2018-01-26T00:45:11.721Z,100773.09
2018-01-26T00:47:40.215Z,100772.19
2018-01-26T00:50:11.524Z,100774.24
2018-01-26T00:52:40.016Z,100760.69
2018-01-26T00:55:11.957Z,100766.00
2018-01-26T00:57:40.218Z,100769.00
2018-01-26T01:00:11.723Z,100764.69
2018-01-26T01:02:40.376Z,100763.84
2018-01-26T01:05:12.304Z,100767.20
2018-01-26T01:07:40.582Z,100769.95
2018-01-26T01:10:10.517Z,100773.16
2018-01-26T01:12:38.778Z,100767.77
2018-01-26T01:15:10.979Z,100779.96
2018-01-26T01:17:39.223Z,100778.06
2018-01-26T01:20:10.552Z,100780.78
2018-01-26T01:22:38.851Z,100783.41
2018-01-26T01:25:10.352Z,100779.38
2018-01-26T01:27:38.672Z,100779.50
2018-01-26T01:30:10.284Z,100778.36
2018-01-26T01:32:38.572Z,100770.84
2018-01-26T01:35:09.913Z,100757.37
2018-01-26T01:37:38.196Z,100761.04
2018-01-26T01:40:12.849Z,100757.19
2018-01-26T01:42:41.144Z,100765.24
2018-01-26T01:45:11.120Z,100765.10
2018-01-26T01:47:39.388Z,100767.16
2018-01-26T01:50:10.673Z,100767.59
2018-01-26T01:52:38.956Z,100777.17
2018-01-26T01:55:13.992Z,100772.23
2018-01-26T01:57:42.268Z,100771.80
2018-01-26T02:00:10.557Z,100768.31
2018-01-26T02:02:38.824Z,100765.10
2018-01-26T02:05:10.433Z,100779.43
2018-01-26T02:07:38.653Z,100777.65
2018-01-26T02:10:09.951Z,100777.61
2018-01-26T02:12:38.561Z,100780.31
2018-01-26T02:15:13.568Z,100784.84
2018-01-26T02:17:41.854Z,100781.20
2018-01-26T02:20:11.390Z,100784.09
2018-01-26T02:22:39.668Z,100784.02
2018-01-26T02:25:11.685Z,100783.48
2018-01-26T02:27:39.952Z,100781.39
2018-01-26T02:30:12.058Z,100784.48
2018-01-26T02:32:40.508Z,100781.71
2018-01-26T02:35:12.387Z,100786.13
2018-01-26T02:37:40.654Z,100782.21
2018-01-26T02:40:12.089Z,100783.39
2018-01-26T02:42:40.378Z,100779.47
2018-01-26T02:45:12.294Z,100774.80
2018-01-26T02:47:41.034Z,100768.87
2018-01-26T02:50:11.147Z,100764.10
2018-01-26T02:52:39.455Z,100770.88
2018-01-26T02:55:11.669Z,100783.35
2018-01-26T02:57:40.404Z,100788.77
2018-01-26T03:00:12.004Z,100789.94
2018-01-26T03:02:40.314Z,100789.84
2018-01-26T03:05:11.530Z,100796.25
2018-01-26T03:07:40.029Z,100791.84
2018-01-26T03:10:11.968Z,100790.59
2018-01-26T03:12:40.258Z,100787.77
2018-01-26T03:15:11.506Z,100785.66
2018-01-26T03:17:39.835Z,100790.58
2018-01-26T03:20:10.514Z,100792.73
2018-01-26T03:22:38.791Z,100798.25
2018-01-26T03:25:12.826Z,100794.47
2018-01-26T03:27:41.120Z,100797.96
2018-01-26T03:30:10.858Z,100799.39
2018-01-26T03:32:39.117Z,100805.88
2018-01-26T03:35:13.244Z,100805.73
2018-01-26T03:37:41.504Z,100807.88
2018-01-26T03:40:11.220Z,100813.26
2018-01-26T03:42:39.495Z,100810.09
2018-01-26T03:45:10.680Z,100816.89
2018-01-26T03:47:39.053Z,100818.64
2018-01-26T03:50:14.253Z,100826.55
2018-01-26T03:52:42.542Z,100840.34
2018-01-26T03:55:10.808Z,100845.47
2018-01-26T03:57:39.089Z,100846.66
2018-01-26T04:00:10.419Z,100846.23
2018-01-26T04:02:38.708Z,100851.75
2018-01-26T04:05:10.207Z,100854.50
2018-01-26T04:07:38.484Z,100858.39
2018-01-26T04:10:13.675Z,100867.02
2018-01-26T04:12:42.014Z,100862.06
2018-01-26T04:15:10.806Z,100873.39
2018-01-26T04:17:39.257Z,100870.60
2018-01-26T04:20:10.780Z,100862.78
2018-01-26T04:22:39.079Z,100871.41
2018-01-26T04:25:12.336Z,100871.37
2018-01-26T04:27:40.641Z,100875.52
2018-01-26T04:30:10.815Z,100866.30
2018-01-26T04:32:39.099Z,100866.02
2018-01-26T04:35:10.600Z,100861.61
2018-01-26T04:37:38.880Z,100871.88
2018-01-26T04:40:10.585Z,100867.92
2018-01-26T04:42:38.875Z,100874.66
2018-01-26T04:45:12.089Z,100867.06
2018-01-26T04:47:40.505Z,100866.38
2018-01-26T04:50:11.818Z,100871.84
2018-01-26T04:52:40.093Z,100876.25
2018-01-26T04:55:11.650Z,100867.86
2018-01-26T04:57:40.923Z,100866.46
2018-01-26T05:00:10.744Z,100876.69
2018-01-26T05:02:39.004Z,100868.77
2018-01-26T05:05:14.028Z,100880.63
2018-01-26T05:07:42.316Z,100891.44
2018-01-26T05:10:10.848Z,100898.63
2018-01-26T05:12:39.117Z,100895.85
2018-01-26T05:15:11.152Z,100887.38
2018-01-26T05:17:39.437Z,100890.63
2018-01-26T05:20:11.604Z,100883.27
2018-01-26T05:22:39.889Z,100889.95
2018-01-26T05:25:11.336Z,100888.35
2018-01-26T05:27:39.635Z,100887.46
2018-01-26T05:30:10.776Z,100893.30
2018-01-26T05:32:39.064Z,100887.59
2018-01-26T05:35:14.075Z,100880.52
2018-01-26T05:37:42.361Z,100883.42
2018-01-26T05:40:10.639Z,100880.87
2018-01-26T05:42:38.955Z,100885.53
2018-01-26T05:45:10.941Z,100894.92
2018-01-26T05:47:39.628Z,100894.92
2018-01-26T05:50:10.963Z,100896.66
2018-01-26T05:52:39.380Z,100902.41
2018-01-26T05:55:10.806Z,100903.23
2018-01-26T05:57:39.405Z,100906.91
2018-01-26T06:00:11.476Z,100916.56
2018-01-26T06:02:41.111Z,100919.20
2018-01-26T06:05:10.939Z,100925.36
2018-01-26T06:07:39.226Z,100924.11
2018-01-26T06:10:13.648Z,100927.79
2018-01-26T06:12:41.952Z,100931.67
2018-01-26T06:15:11.092Z,100934.64
2018-01-26T06:17:39.384Z,100921.75
2018-01-26T06:20:10.924Z,100922.53
2018-01-26T06:22:39.218Z,100924.40
2018-01-26T06:25:10.610Z,100919.73
2018-01-26T06:27:38.906Z,100922.45
2018-01-26T06:30:10.460Z,100920.28
2018-01-26T06:32:38.940Z,100926.25
2018-01-26T06:35:14.224Z,100932.25
2018-01-26T06:37:42.518Z,100948.87
2018-01-26T06:40:10.802Z,100944.94
2018-01-26T06:42:39.056Z,100946.56
2018-01-26T06:45:10.901Z,100952.37
2018-01-26T06:47:39.176Z,100948.48
2018-01-26T06:50:10.766Z,100950.58
2018-01-26T06:52:39.108Z,100956.62
2018-01-26T06:55:14.139Z,100970.88
2018-01-26T06:57:43.514Z,100984.13
2018-01-26T07:00:11.884Z,100993.79
2018-01-26T07:02:40.916Z,100995.41
2018-01-26T07:05:12.669Z,100992.16
2018-01-26T07:07:41.188Z,100996.93
2018-01-26T07:10:12.404Z,101003.48
2018-01-26T07:12:40.762Z,101012.08
2018-01-26T07:15:10.588Z,101016.69
2018-01-26T07:17:39.176Z,101026.51
2018-01-26T07:20:10.713Z,101025.64
2018-01-26T07:22:39.012Z,101031.35
2018-01-26T07:25:14.141Z,101025.81
2018-01-26T07:27:43.231Z,101038.30
2018-01-26T07:30:11.508Z,101037.48
2018-01-26T07:32:39.985Z,101043.24
2018-01-26T07:35:12.217Z,101039.85
2018-01-26T07:37:40.506Z,101039.72
2018-01-26T07:40:12.032Z,101040.31
2018-01-26T07:42:40.331Z,101043.77
2018-01-26T07:45:12.425Z,101062.16
2018-01-26T07:47:40.734Z,101055.20
2018-01-26T07:50:12.010Z,101059.53
2018-01-26T07:52:40.761Z,101052.58
2018-01-26T07:55:11.067Z,101060.50
2018-01-26T07:57:39.428Z,101059.83
2018-01-26T08:00:11.355Z,101059.58
2018-01-26T08:02:39.625Z,101055.50
2018-01-26T08:05:11.572Z,101060.59
2018-01-26T08:07:39.895Z,101058.90
2018-01-26T08:10:10.665Z,101061.69
2018-01-26T08:12:38.928Z,101070.79
2018-01-26T08:15:14.051Z,101074.70
2018-01-26T08:17:42.340Z,101072.95
2018-01-26T08:20:10.645Z,101082.55
2018-01-26T08:22:39.300Z,101087.75
2018-01-26T08:25:10.796Z,101088.34
2018-01-26T08:27:39.792Z,101083.95
2018-01-26T08:30:11.808Z,101093.82
2018-01-26T08:32:40.646Z,101085.98
2018-01-26T08:35:12.210Z,101089.33
2018-01-26T08:37:40.586Z,101080.41
2018-01-26T08:40:10.660Z,101078.72
2018-01-26T08:42:38.948Z,101078.69
2018-01-26T08:45:14.252Z,101075.81
2018-01-26T08:47:42.557Z,101069.76
2018-01-26T08:50:10.833Z,101068.50
2018-01-26T08:52:39.131Z,101068.85
2018-01-26T08:55:17.149Z,101071.42
2018-01-26T08:57:45.453Z,101083.03
2018-01-26T09:00:13.719Z,101081.98
2018-01-26T09:02:42.012Z,101089.01
2018-01-26T09:05:10.698Z,101096.22
2018-01-26T09:07:39.387Z,101095.50
2018-01-26T09:10:10.775Z,101104.47
2018-01-26T09:12:39.103Z,101109.23
2018-01-26T09:15:14.176Z,101103.08
2018-01-26T09:17:42.488Z,101108.41
2018-01-26T09:20:10.773Z,101114.33
2018-01-26T09:22:39.252Z,101124.80
2018-01-26T09:25:11.921Z,101132.97
2018-01-26T09:27:40.199Z,101126.33
2018-01-26T09:30:12.328Z,101134.42
2018-01-26T09:32:40.853Z,101146.64
2018-01-26T09:35:10.745Z,101145.95
2018-01-26T09:37:39.045Z,101153.64
2018-01-26T09:40:10.936Z,101145.81
2018-01-26T09:42:39.901Z,101151.72
2018-01-26T09:45:11.811Z,101160.27
2018-01-26T09:47:40.521Z,101161.73
2018-01-26T09:50:12.305Z,101167.26
2018-01-26T09:52:40.583Z,101173.38
2018-01-26T09:55:10.708Z,101167.98
2018-01-26T09:57:38.977Z,101167.27
2018-01-26T10:00:10.509Z,101163.06
2018-01-26T10:02:39.093Z,101170.47
2018-01-26T10:05:14.098Z,101173.57
2018-01-26T10:07:42.980Z,101171.08
2018-01-26T10:10:24.027Z,101169.82
2018-01-26T10:12:52.476Z,101180.47
2018-01-26T10:15:21.064Z,101172.50
2018-01-26T10:17:49.337Z,101172.34
2018-01-26T10:20:17.631Z,101174.97
2018-01-26T10:22:45.908Z,101160.52
2018-01-26T10:25:14.467Z,101164.83
2018-01-26T10:27:42.733Z,101160.55
2018-01-26T10:30:11.012Z,101166.17
2018-01-26T10:32:39.537Z,101169.59
2018-01-26T10:35:10.989Z,101170.77
2018-01-26T10:37:39.279Z,101169.11
2018-01-26T10:40:13.193Z,101169.68
2018-01-26T10:42:41.486Z,101176.63
2018-01-26T10:45:12.999Z,101182.18
2018-01-26T10:47:41.307Z,101180.86
2018-01-26T10:50:11.444Z,101178.84
2018-01-26T10:52:39.917Z,101182.41
2018-01-26T10:55:10.684Z,101179.59
2018-01-26T10:57:39.212Z,101185.68
2018-01-26T11:00:10.770Z,101181.58
2018-01-26T11:02:39.071Z,101185.86
2018-01-26T11:05:14.240Z,101190.91
2018-01-26T11:07:42.541Z,101185.68
2018-01-26T11:10:10.975Z,101194.73
2018-01-26T11:12:39.247Z,101203.95
2018-01-26T11:15:10.774Z,101209.32
2018-01-26T11:17:39.050Z,101209.48
2018-01-26T11:20:10.500Z,101211.49
2018-01-26T11:22:39.081Z,101217.78
2018-01-26T11:25:14.240Z,101218.90
2018-01-26T11:27:42.524Z,101227.83
2018-01-26T11:30:10.793Z,101224.81
2018-01-26T11:32:39.833Z,101218.05
2018-01-26T11:35:11.953Z,101221.04
2018-01-26T11:37:40.328Z,101226.01
2018-01-26T11:40:12.742Z,101233.30
2018-01-26T11:42:41.712Z,101236.38
2018-01-26T11:45:11.096Z,101238.61
2018-01-26T11:47:39.534Z,101241.78
2018-01-26T11:50:11.752Z,101246.23
2018-01-26T11:52:40.044Z,101251.97
2018-01-26T11:55:12.755Z,101254.25
2018-01-26T11:57:41.253Z,101263.52
2018-01-26T12:00:11.532Z,101255.14
2018-01-26T12:02:39.837Z,101252.30
2018-01-26T12:05:11.829Z,101244.55
2018-01-26T12:07:40.123Z,101243.91
2018-01-26T12:10:11.304Z,101247.73
2018-01-26T12:12:39.603Z,101247.53
2018-01-26T12:15:10.948Z,101246.23
2018-01-26T12:17:39.478Z,101242.04
2018-01-26T12:20:11.341Z,101245.95
2018-01-26T12:22:39.654Z,101243.02
2018-01-26T12:25:11.751Z,101247.19
2018-01-26T12:27:40.044Z,101252.12
2018-01-26T12:30:10.692Z,101244.89
2018-01-26T12:32:38.972Z,101245.77
2018-01-26T12:35:10.499Z,101250.14
2018-01-26T12:37:38.778Z,101257.02
2018-01-26T12:40:13.644Z,101258.75
2018-01-26T12:42:41.937Z,101254.95
2018-01-26T12:45:11.893Z,101249.29
2018-01-26T12:47:40.180Z,101246.36
2018-01-26T12:50:12.461Z,101252.92
2018-01-26T12:52:41.108Z,101266.95
2018-01-26T12:55:11.004Z,101266.52
2018-01-26T12:57:39.276Z,101266.77
2018-01-26T13:02:47.876Z,101268.09
2018-01-26T13:05:16.760Z,101266.66
2018-01-26T13:07:45.061Z,101266.72
2018-01-26T13:10:13.329Z,101275.62
2018-01-26T13:12:41.604Z,101273.94
2018-01-26T13:15:11.048Z,101269.17
2018-01-26T13:17:39.454Z,101270.98
2018-01-26T13:20:10.919Z,101271.37
2018-01-26T13:22:39.162Z,101278.36
2018-01-26T13:25:10.908Z,101280.06
2018-01-26T13:27:39.208Z,101271.70
2018-01-26T13:30:10.507Z,101274.00
2018-01-26T13:32:38.798Z,101275.11
2018-01-26T13:35:10.076Z,101278.97
2018-01-26T13:37:38.399Z,101281.47
2018-01-26T13:40:13.048Z,101280.43
2018-01-26T13:42:41.352Z,101283.97
2018-01-26T13:45:11.302Z,101282.48
2018-01-26T13:47:39.601Z,101284.83
2018-01-26T13:50:11.492Z,101289.14
2018-01-26T13:52:39.780Z,101288.55
2018-01-26T13:55:11.048Z,101291.46
2018-01-26T13:57:39.844Z,101295.80
2018-01-26T14:00:11.696Z,101301.05
2018-01-26T14:02:40.025Z,101307.94
2018-01-26T14:05:11.976Z,101308.88
2018-01-26T14:07:40.592Z,101307.66
2018-01-26T14:10:12.448Z,101311.47
2018-01-26T14:12:41.136Z,101321.79
2018-01-26T14:15:10.749Z,101327.44
2018-01-26T14:17:39.057Z,101331.02
2018-01-26T14:20:11.138Z,101336.58
2018-01-26T14:22:39.431Z,101340.44
2018-01-26T14:25:10.774Z,101342.63
2018-01-26T14:27:39.096Z,101353.42
2018-01-26T14:30:14.381Z,101358.63
2018-01-26T14:32:42.671Z,101372.02
2018-01-26T14:35:10.969Z,101374.31
2018-01-26T14:37:39.309Z,101372.66
2018-01-26T14:40:10.723Z,101372.81
2018-01-26T14:42:39.281Z,101374.59
2018-01-26T14:45:10.912Z,101382.64
2018-01-26T14:47:39.302Z,101384.71
2018-01-26T14:50:10.717Z,101397.50
2018-01-26T14:52:39.003Z,101398.83
2018-01-26T14:55:10.469Z,101401.00
2018-01-26T14:57:39.021Z,101406.78
2018-01-26T15:00:12.296Z,101411.67
2018-01-26T15:02:40.886Z,101409.94
2018-01-26T15:05:11.119Z,101418.55
2018-01-26T15:07:39.834Z,101426.67
2018-01-26T15:10:10.819Z,101427.86
2018-01-26T15:12:39.238Z,101432.14
2018-01-26T15:15:10.732Z,101431.01
2018-01-26T15:17:39.039Z,101436.84
2018-01-26T15:20:12.425Z,101432.31
2018-01-26T15:22:42.127Z,101434.30
2018-01-26T15:25:11.348Z,101435.13
2018-01-26T15:27:39.660Z,101427.55
2018-01-26T15:30:11.685Z,101432.23
2018-01-26T15:32:39.968Z,101432.55
2018-01-26T15:35:11.142Z,101424.91
2018-01-26T15:37:39.428Z,101425.86
2018-01-26T15:40:10.862Z,101422.41
2018-01-26T15:42:39.137Z,101423.56
2018-01-26T15:45:14.342Z,101417.48
2018-01-26T15:47:42.669Z,101420.64
2018-01-26T15:50:10.957Z,101420.88
2018-01-26T15:52:39.230Z,101425.64
2018-01-26T15:55:10.542Z,101433.75
2018-01-26T15:57:38.804Z,101438.14
2018-01-26T16:00:10.149Z,101435.34
2018-01-26T16:02:38.430Z,101445.09
2018-01-26T16:05:13.360Z,101454.21
2018-01-26T16:07:41.638Z,101460.30
2018-01-26T16:10:10.832Z,101464.45
2018-01-26T16:12:39.106Z,101465.11
2018-01-26T16:15:10.598Z,101472.45
2018-01-26T16:17:38.889Z,101471.56
2018-01-26T16:20:10.597Z,101472.83
2018-01-26T16:22:39.138Z,101479.11
2018-01-26T16:25:14.189Z,101478.86
2018-01-26T16:27:42.961Z,101485.41
2018-01-26T16:30:11.230Z,101489.22
2018-01-26T16:32:39.749Z,101498.92
2018-01-26T16:35:11.625Z,101501.33
2018-01-26T16:37:40.516Z,101510.22
2018-01-26T16:40:10.689Z,101508.56
2018-01-26T16:42:39.053Z,101513.45
2018-01-26T16:45:10.349Z,101526.66
2018-01-26T16:47:38.664Z,101530.19
2018-01-26T16:50:10.650Z,101528.16
2018-01-26T16:52:39.068Z,101536.41
2018-01-26T16:55:09.742Z,101539.15
2018-01-26T16:57:38.052Z,101546.51
2018-01-26T17:00:09.975Z,101544.23
2018-01-26T17:02:38.261Z,101561.88
2018-01-26T17:05:10.439Z,101567.66
2018-01-26T17:07:38.692Z,101569.36
2018-01-26T17:10:09.875Z,101575.72
2018-01-26T17:12:38.116Z,101572.63
2018-01-26T17:15:09.569Z,101576.02
2018-01-26T17:17:37.850Z,101582.31
2018-01-26T17:20:09.156Z,101585.17
2018-01-26T17:22:37.468Z,101585.60
2018-01-26T17:25:10.804Z,101589.42
2018-01-26T17:27:39.076Z,101583.66
2018-01-26T17:30:11.241Z,101589.17
2018-01-26T17:32:39.558Z,101593.95
2018-01-26T17:35:10.794Z,101597.33
2018-01-26T17:37:39.802Z,101602.03
2018-01-26T17:40:10.271Z,101611.92
2018-01-26T17:42:38.574Z,101610.14
2018-01-26T17:45:09.952Z,101619.13
2018-01-26T17:47:39.276Z,101627.78
2018-01-26T17:50:10.620Z,101626.90
2018-01-26T17:52:39.553Z,101622.79
2018-01-26T17:55:11.232Z,101631.32
2018-01-26T17:57:39.554Z,101629.62
2018-01-26T18:00:11.519Z,101633.78
2018-01-26T18:02:40.021Z,101638.12
2018-01-26T18:05:10.442Z,101646.03
2018-01-26T18:07:39.037Z,101645.12
2018-01-26T18:10:10.862Z,101657.36
2018-01-26T18:12:39.308Z,101647.81
2018-01-26T18:15:10.833Z,101657.63
2018-01-26T18:17:39.806Z,101660.25
2018-01-26T18:20:11.671Z,101660.03
2018-01-26T18:22:39.959Z,101669.49
2018-01-26T18:25:11.451Z,101677.09
2018-01-26T18:27:39.771Z,101681.34
2018-01-26T18:30:11.719Z,101687.06
2018-01-26T18:32:40.004Z,101689.48
2018-01-26T18:35:11.216Z,101694.16
2018-01-26T18:37:39.575Z,101708.44
2018-01-26T18:40:11.486Z,101712.47
2018-01-26T18:42:39.789Z,101722.36
2018-01-26T18:45:10.405Z,101725.88
2018-01-26T18:47:38.716Z,101727.99
2018-01-26T18:50:10.839Z,101731.85
2018-01-26T18:52:39.297Z,101732.50
2018-01-26T18:55:11.317Z,101737.91
2018-01-26T18:57:39.669Z,101745.31
2018-01-26T19:00:11.566Z,101743.74
2018-01-26T19:02:39.876Z,101742.81
2018-01-26T19:05:10.960Z,101743.50
2018-01-26T19:07:39.248Z,101747.30
2018-01-26T19:10:10.610Z,101745.11
2018-01-26T19:12:38.888Z,101745.55
2018-01-26T19:15:09.870Z,101740.27
2018-01-26T19:17:38.158Z,101742.44
2018-01-26T19:20:12.714Z,101745.66
2018-01-26T19:22:40.988Z,101754.73
2018-01-26T19:25:10.189Z,101754.44
2018-01-26T19:27:38.501Z,101759.35
2018-01-26T19:30:10.478Z,101767.12
2018-01-26T19:32:38.865Z,101780.95
2018-01-26T19:35:13.617Z,101778.94
2018-01-26T19:37:42.058Z,101777.97
2018-01-26T19:40:10.866Z,101784.84
2018-01-26T19:42:39.781Z,101788.28
2018-01-26T19:45:10.308Z,101794.57
2018-01-26T19:47:39.090Z,101804.09
2018-01-26T19:50:10.433Z,101803.02
2018-01-26T19:52:39.335Z,101813.53
2018-01-26T19:55:11.185Z,101815.81
2018-01-26T19:57:40.179Z,101818.80
2018-01-26T20:00:11.821Z,101823.48
2018-01-26T20:02:40.834Z,101829.05
2018-01-26T20:05:28.811Z,101832.55
2018-01-26T20:08:01.316Z,101832.39
2018-01-26T20:10:30.241Z,101830.66
2018-01-26T20:13:04.747Z,101834.95
2018-01-26T20:15:33.753Z,101838.47
2018-01-26T20:18:02.952Z,101843.07
2018-01-26T20:20:31.920Z,101847.37
2018-01-26T20:23:00.760Z,101853.03
2018-01-26T20:25:29.929Z,101857.30
2018-01-26T20:27:58.818Z,101863.41
2018-01-26T20:30:27.719Z,101859.31
2018-01-26T20:32:57.269Z,101861.16
2018-01-26T20:35:26.202Z,101866.04
2018-01-26T20:37:55.100Z,101874.59
2018-01-26T20:40:23.994Z,101879.41
2018-01-26T20:42:52.677Z,101885.53
2018-01-26T20:45:20.964Z,101889.83
2018-01-26T20:47:49.275Z,101894.64
2018-01-26T20:50:17.589Z,101897.55
2018-01-26T20:52:46.118Z,101902.02
2018-01-26T20:55:14.409Z,101899.75
2018-01-26T20:57:42.706Z,101906.84
2018-01-26T21:00:11.502Z,101910.93
2018-01-26T21:02:39.777Z,101909.73
2018-01-26T21:05:09.773Z,101918.07
2018-01-26T21:07:38.736Z,101917.63
2018-01-26T21:10:11.298Z,101914.18
2018-01-26T21:12:39.589Z,101916.36
2018-01-26T21:15:11.534Z,101925.52
2018-01-26T21:17:39.850Z,101929.34
2018-01-26T21:20:10.889Z,101933.98
2018-01-26T21:22:39.818Z,101935.11
2018-01-26T21:25:10.009Z,101940.45
2018-01-26T21:27:38.300Z,101939.05
2018-01-26T21:30:13.406Z,101940.67
2018-01-26T21:32:42.256Z,101943.52
2018-01-26T21:35:10.549Z,101946.77
2018-01-26T21:37:38.849Z,101949.89
2018-01-26T21:40:10.911Z,101944.18
2018-01-26T21:42:39.190Z,101956.59
2018-01-26T21:45:10.733Z,101953.22
2018-01-26T21:47:39.035Z,101956.09
2018-01-26T21:50:10.198Z,101969.97
2018-01-26T21:52:38.501Z,101971.08
2018-01-26T21:55:10.654Z,101963.88
2018-01-26T21:57:38.953Z,101965.02
2018-01-26T22:00:10.505Z,101968.13
2018-01-26T22:02:38.795Z,101973.38
2018-01-26T22:05:15.983Z,101975.48
2018-01-26T22:07:44.295Z,101978.40
2018-01-26T22:10:12.597Z,101980.23
2018-01-26T22:12:40.922Z,101985.18
2018-01-26T22:15:10.060Z,101985.12
2018-01-26T22:17:38.368Z,101996.02
2018-01-26T22:20:09.833Z,102000.60
2018-01-26T22:22:38.144Z,102007.03
2018-01-26T22:25:09.605Z,102008.61
2018-01-26T22:27:37.977Z,102015.12
2018-01-26T22:30:13.409Z,102020.55
2018-01-26T22:32:41.794Z,102021.27
2018-01-26T22:35:10.085Z,102019.28
2018-01-26T22:37:38.414Z,102015.17
2018-01-26T22:40:09.853Z,102021.52
2018-01-26T22:42:38.374Z,102020.53
2018-01-26T22:45:10.070Z,102026.94
2018-01-26T22:47:38.786Z,102023.40
2018-01-26T22:50:10.340Z,102025.64
2018-01-26T22:52:38.652Z,102033.73
2018-01-26T22:55:10.849Z,102039.05
2018-01-26T22:57:39.134Z,102046.20
2018-01-26T23:00:10.584Z,102058.19
2018-01-26T23:02:38.912Z,102049.51
2018-01-26T23:05:11.561Z,102049.52
2018-01-26T23:07:40.111Z,102054.44
2018-01-26T23:10:09.930Z,102057.28
2018-01-26T23:12:38.236Z,102059.95
2018-01-26T23:15:09.813Z,102062.70
2018-01-26T23:17:38.137Z,102062.22
2018-01-26T23:20:09.832Z,102071.23
2018-01-26T23:22:38.477Z,102071.60
2018-01-26T23:25:10.214Z,102074.20
2018-01-26T23:27:39.033Z,102074.14
2018-01-26T23:30:10.687Z,102075.84
2018-01-26T23:32:39.741Z,102076.48
2018-01-26T23:35:11.054Z,102088.43
2018-01-26T23:37:39.355Z,102095.10
2018-01-26T23:40:10.556Z,102095.05
2018-01-26T23:42:38.870Z,102096.36
2018-01-26T23:45:10.985Z,102100.00
2018-01-26T23:47:40.205Z,102103.67
2018-01-26T23:50:10.297Z,102101.83
2018-01-26T23:52:38.860Z,102102.90
2018-01-26T23:55:10.924Z,102106.28
2018-01-26T23:57:39.241Z,102101.86
